createdAt,value
2017-12-01T00:00:17.833Z,21.83
2017-12-01T00:02:46.479Z,25.63
2017-12-01T00:05:15.157Z,22.10
2017-12-01T00:07:43.974Z,20.37
2017-12-01T00:10:12.618Z,14.93
2017-12-01T00:12:41.436Z,22.20
2017-12-01T00:15:10.368Z,20.10
2017-12-01T00:17:38.998Z,19.00
2017-12-01T00:20:07.707Z,21.40
2017-12-01T00:22:36.320Z,16.70
2017-12-01T00:25:04.951Z,18.50
2017-12-01T00:27:33.641Z,18.40
2017-12-01T00:30:02.447Z,19.13
2017-12-01T00:32:31.051Z,17.43
2017-12-01T00:34:59.713Z,20.43
2017-12-01T00:37:28.335Z,19.73
2017-12-01T00:39:57.633Z,17.17
2017-12-01T00:42:26.265Z,18.13
2017-12-01T00:44:54.928Z,22.40
2017-12-01T00:47:23.554Z,24.33
2017-12-01T00:49:52.225Z,18.97
2017-12-01T00:52:20.838Z,16.17
2017-12-01T00:54:49.458Z,23.53
2017-12-01T00:57:18.191Z,16.57
2017-12-01T00:59:46.716Z,18.20
2017-12-01T01:02:15.374Z,19.80
2017-12-01T01:04:44.034Z,16.63
2017-12-01T01:07:12.518Z,21.07
2017-12-01T01:09:41.206Z,19.27
2017-12-01T01:12:09.834Z,18.03
2017-12-01T01:14:40.306Z,21.97
2017-12-01T01:17:09.039Z,18.10
2017-12-01T01:19:38.003Z,17.10
2017-12-01T01:22:06.357Z,15.87
2017-12-01T01:24:34.673Z,16.97
2017-12-01T01:27:03.375Z,16.57
2017-12-01T01:29:31.995Z,16.67
2017-12-01T01:32:00.609Z,15.70
2017-12-01T01:34:29.322Z,20.67
2017-12-01T01:36:57.950Z,18.33
2017-12-01T01:39:26.553Z,17.30
2017-12-01T01:41:55.317Z,20.77
2017-12-01T01:44:23.960Z,16.40
2017-12-01T01:46:52.338Z,22.90
2017-12-01T01:49:20.993Z,22.90
2017-12-01T01:51:49.370Z,17.73
2017-12-01T01:54:18.023Z,16.90
2017-12-01T01:56:46.694Z,23.00
2017-12-01T01:59:15.345Z,19.07
2017-12-01T02:01:44.053Z,20.07
2017-12-01T02:04:12.381Z,21.77
2017-12-01T02:06:41.087Z,19.57
2017-12-01T02:09:09.419Z,22.53
2017-12-01T02:11:37.816Z,21.70
2017-12-01T02:14:06.145Z,23.23
2017-12-01T02:16:34.901Z,18.17
2017-12-01T02:19:03.226Z,22.70
2017-12-01T02:21:39.615Z,23.17
2017-12-01T02:24:16.116Z,19.93
2017-12-01T02:26:51.899Z,20.07
2017-12-01T02:29:30.278Z,23.90
2017-12-01T02:32:09.121Z,20.80
2017-12-01T02:34:44.992Z,21.13
2017-12-01T02:37:23.326Z,23.40
2017-12-01T02:40:01.154Z,21.73
2017-12-01T02:42:35.907Z,18.13
2017-12-01T02:45:09.441Z,25.10
2017-12-01T02:47:38.103Z,20.70
2017-12-01T02:50:06.517Z,22.30
2017-12-01T02:52:35.206Z,18.70
2017-12-01T02:55:03.602Z,21.60
2017-12-01T02:57:31.982Z,22.07
2017-12-01T03:00:00.504Z,22.83
2017-12-01T03:02:28.894Z,23.90
2017-12-01T03:04:57.272Z,24.60
2017-12-01T03:07:25.907Z,27.40
2017-12-01T03:09:54.258Z,21.80
2017-12-01T03:12:22.650Z,21.77
2017-12-01T03:14:51.022Z,20.17
2017-12-01T03:17:19.361Z,23.00
2017-12-01T03:19:47.790Z,23.70
2017-12-01T03:22:16.131Z,24.33
2017-12-01T03:24:44.518Z,19.30
2017-12-01T03:27:12.906Z,22.80
2017-12-01T03:29:41.327Z,21.23
2017-12-01T03:32:09.674Z,23.17
2017-12-01T03:34:40.261Z,24.30
2017-12-01T03:37:08.603Z,25.77
2017-12-01T03:39:36.946Z,26.40
2017-12-01T03:42:05.379Z,23.93
2017-12-01T03:44:33.719Z,20.67
2017-12-01T03:47:02.362Z,19.23
2017-12-01T03:49:30.741Z,27.23
2017-12-01T03:51:59.132Z,24.20
2017-12-01T03:54:27.506Z,22.43
2017-12-01T03:56:56.010Z,24.40
2017-12-01T03:59:24.406Z,18.77
2017-12-01T04:01:52.781Z,19.27
2017-12-01T04:04:21.162Z,26.00
2017-12-01T04:06:49.497Z,20.93
2017-12-01T04:09:17.870Z,23.97
2017-12-01T04:11:46.212Z,18.47
2017-12-01T04:14:14.597Z,26.53
2017-12-01T04:16:42.974Z,17.27
2017-12-01T04:19:11.380Z,24.70
2017-12-01T04:21:39.849Z,22.33
2017-12-01T04:24:08.314Z,23.27
2017-12-01T04:26:36.730Z,22.53
2017-12-01T04:29:05.059Z,18.10
2017-12-01T04:31:33.503Z,17.87
2017-12-01T04:34:01.932Z,15.70
2017-12-01T04:36:30.262Z,26.37
2017-12-01T04:38:58.647Z,18.83
2017-12-01T04:41:27.461Z,19.27
2017-12-01T04:43:55.854Z,18.87
2017-12-01T04:46:24.270Z,23.70
2017-12-01T04:48:55.979Z,21.30
2017-12-01T04:51:25.295Z,19.33
2017-12-01T04:53:55.000Z,22.00
2017-12-01T04:56:23.381Z,19.50
2017-12-01T04:58:52.446Z,17.90
2017-12-01T05:01:25.628Z,21.70
2017-12-01T05:03:54.266Z,19.70
2017-12-01T05:06:22.921Z,14.70
2017-12-01T05:08:51.307Z,19.90
2017-12-01T05:11:19.679Z,19.23
2017-12-01T05:13:50.308Z,20.17
2017-12-01T05:16:18.681Z,18.90
2017-12-01T05:18:48.693Z,19.53
2017-12-01T05:21:20.218Z,14.97
2017-12-01T05:23:49.086Z,13.83
2017-12-01T05:26:17.464Z,16.70
2017-12-01T05:28:45.793Z,16.50
2017-12-01T05:31:14.161Z,26.80
2017-12-01T05:33:42.501Z,19.23
2017-12-01T05:36:10.878Z,19.00
2017-12-01T05:38:39.214Z,20.97
2017-12-01T05:41:07.658Z,16.37
2017-12-01T05:43:35.999Z,15.03
2017-12-01T05:46:04.329Z,21.67
2017-12-01T05:48:32.706Z,18.00
2017-12-01T05:51:01.047Z,16.63
2017-12-01T05:53:29.426Z,18.40
2017-12-01T05:55:57.757Z,17.73
2017-12-01T05:58:26.150Z,20.27
2017-12-01T06:00:54.499Z,17.27
2017-12-01T06:03:24.045Z,16.37
2017-12-01T06:05:52.172Z,13.97
2017-12-01T06:08:25.592Z,17.20
2017-12-01T06:10:53.925Z,13.67
2017-12-01T06:13:23.216Z,20.40
2017-12-01T06:15:55.391Z,17.10
2017-12-01T06:18:23.770Z,14.03
2017-12-01T06:20:52.177Z,14.73
2017-12-01T06:23:23.056Z,16.00
2017-12-01T06:25:51.403Z,15.63
2017-12-01T06:28:19.866Z,20.30
2017-12-01T06:30:48.190Z,11.73
2017-12-01T06:33:18.088Z,14.80
2017-12-01T06:35:46.570Z,16.83
2017-12-01T06:38:14.945Z,15.57
2017-12-01T06:40:43.293Z,11.70
2017-12-01T06:43:11.653Z,13.20
2017-12-01T06:45:39.982Z,12.00
2017-12-01T06:48:08.694Z,13.87
2017-12-01T06:50:37.035Z,16.73
2017-12-01T06:53:05.432Z,15.67
2017-12-01T06:55:33.764Z,15.43
2017-12-01T06:58:02.090Z,16.43
2017-12-01T07:00:30.507Z,18.07
2017-12-01T07:02:58.694Z,15.20
2017-12-01T07:05:27.338Z,15.97
2017-12-01T07:07:56.063Z,18.53
2017-12-01T07:10:24.706Z,14.70
2017-12-01T07:12:53.376Z,15.27
2017-12-01T07:15:22.030Z,13.63
2017-12-01T07:17:50.560Z,18.80
2017-12-01T07:20:19.170Z,15.03
2017-12-01T07:22:47.824Z,15.00
2017-12-01T07:25:16.439Z,15.73
2017-12-01T07:27:45.086Z,14.07
2017-12-01T07:30:13.693Z,16.87
2017-12-01T07:32:42.407Z,18.23
2017-12-01T07:35:11.025Z,16.03
2017-12-01T07:37:39.964Z,17.57
2017-12-01T07:40:08.455Z,17.53
2017-12-01T07:42:36.978Z,17.70
2017-12-01T07:45:05.464Z,18.60
2017-12-01T07:47:33.986Z,17.47
2017-12-01T07:50:02.502Z,16.67
2017-12-01T07:52:31.043Z,24.93
2017-12-01T07:54:59.551Z,16.37
2017-12-01T07:57:28.017Z,19.67
2017-12-01T07:59:56.645Z,18.37
2017-12-01T08:02:25.198Z,14.83
2017-12-01T08:04:53.673Z,15.77
2017-12-01T08:07:22.222Z,17.10
2017-12-01T08:09:50.712Z,13.50
2017-12-01T08:12:19.246Z,14.33
2017-12-01T08:14:47.724Z,16.47
2017-12-01T08:17:27.252Z,16.03
2017-12-01T08:19:55.786Z,15.83
2017-12-01T08:22:35.288Z,17.03
2017-12-01T08:25:14.870Z,16.87
2017-12-01T08:27:43.393Z,22.03
2017-12-01T08:30:11.921Z,17.73
2017-12-01T08:32:40.994Z,16.60
2017-12-01T08:35:09.608Z,14.70
2017-12-01T08:37:38.279Z,14.27
2017-12-01T08:40:06.939Z,13.73
2017-12-01T08:42:35.636Z,20.40
2017-12-01T08:45:04.474Z,17.40
2017-12-01T08:47:33.162Z,17.23
2017-12-01T08:50:01.825Z,18.43
2017-12-01T08:52:30.493Z,18.53
2017-12-01T08:54:59.101Z,17.90
2017-12-01T08:57:27.779Z,18.10
2017-12-01T08:59:56.473Z,21.27
2017-12-01T09:02:25.110Z,18.17
2017-12-01T09:04:53.729Z,23.60
2017-12-01T09:07:22.370Z,18.53
2017-12-01T09:09:50.998Z,19.97
2017-12-01T09:12:19.375Z,18.93
2017-12-01T09:14:48.059Z,17.40
2017-12-01T09:17:16.779Z,19.60
2017-12-01T09:19:45.666Z,21.43
2017-12-01T09:22:14.421Z,18.03
2017-12-01T09:24:43.142Z,18.53
2017-12-01T09:27:11.650Z,15.77
2017-12-01T09:29:40.311Z,20.70
2017-12-01T09:32:08.946Z,15.93
2017-12-01T09:34:37.687Z,16.90
2017-12-01T09:37:06.306Z,14.53
2017-12-01T09:39:35.011Z,17.57
2017-12-01T09:42:03.439Z,21.40
2017-12-01T09:44:31.638Z,16.97
2017-12-01T09:47:00.165Z,17.73
2017-12-01T09:49:28.809Z,15.43
2017-12-01T09:51:57.506Z,16.20
2017-12-01T09:54:26.163Z,20.40
2017-12-01T09:56:54.837Z,15.90
2017-12-01T09:59:23.679Z,15.73
2017-12-01T10:01:52.396Z,16.30
2017-12-01T10:04:21.253Z,17.37
2017-12-01T10:06:49.894Z,17.70
2017-12-01T10:09:18.568Z,20.10
2017-12-01T10:11:47.206Z,17.00
2017-12-01T10:14:15.882Z,13.97
2017-12-01T10:16:44.497Z,17.20
2017-12-01T10:19:13.189Z,15.30
2017-12-01T10:21:42.039Z,18.17
2017-12-01T10:24:10.814Z,18.20
2017-12-01T10:26:39.591Z,16.83
2017-12-01T10:29:08.261Z,17.00
2017-12-01T10:31:36.890Z,17.70
2017-12-01T10:34:05.562Z,14.57
2017-12-01T10:36:34.230Z,18.70
2017-12-01T10:39:02.883Z,16.97
2017-12-01T10:41:31.501Z,15.87
2017-12-01T10:44:00.162Z,16.60
2017-12-01T10:46:28.644Z,14.43
2017-12-01T10:48:57.339Z,16.80
2017-12-01T10:51:26.002Z,17.83
2017-12-01T10:53:54.690Z,17.07
2017-12-01T10:56:23.361Z,15.60
2017-12-01T10:58:51.920Z,14.27
2017-12-01T11:01:20.589Z,16.97
2017-12-01T11:03:49.214Z,19.50
2017-12-01T11:06:17.867Z,14.20
2017-12-01T11:08:46.533Z,18.33
2017-12-01T11:11:15.146Z,19.10
2017-12-01T11:13:43.818Z,19.80
2017-12-01T11:16:12.474Z,18.70
2017-12-01T11:18:41.127Z,18.63
2017-12-01T11:21:09.795Z,15.47
2017-12-01T11:23:38.677Z,19.43
2017-12-01T11:26:07.424Z,20.03
2017-12-01T11:28:36.037Z,17.67
2017-12-01T11:31:04.654Z,13.80
2017-12-01T11:33:33.321Z,17.03
2017-12-01T11:36:01.941Z,16.77
2017-12-01T11:38:30.555Z,16.30
2017-12-01T11:40:59.209Z,17.43
2017-12-01T11:43:27.822Z,14.03
2017-12-01T11:45:56.478Z,14.00
2017-12-01T11:48:25.112Z,20.87
2017-12-01T11:50:53.786Z,21.57
2017-12-01T11:53:25.679Z,15.90
2017-12-01T11:55:54.044Z,16.90
2017-12-01T11:58:22.657Z,17.27
2017-12-01T12:01:01.608Z,18.73
2017-12-01T12:03:30.330Z,18.53
2017-12-01T12:05:58.768Z,16.77
2017-12-01T12:08:27.122Z,18.50
2017-12-01T12:10:55.785Z,17.43
2017-12-01T12:13:32.949Z,15.37
2017-12-01T12:16:01.386Z,14.63
2017-12-01T12:18:46.349Z,22.80
2017-12-01T12:21:16.042Z,14.90
2017-12-01T12:23:44.377Z,14.60
2017-12-01T12:26:12.704Z,15.87
2017-12-01T12:28:41.421Z,13.07
2017-12-01T12:31:18.777Z,14.70
2017-12-01T12:33:47.482Z,15.80
2017-12-01T12:36:15.861Z,15.40
2017-12-01T12:38:44.530Z,15.37
2017-12-01T12:41:19.115Z,17.40
2017-12-01T12:43:49.976Z,14.27
2017-12-01T12:46:21.356Z,16.60
2017-12-01T12:48:52.798Z,16.73
2017-12-01T12:51:26.339Z,16.00
2017-12-01T12:54:02.166Z,11.33
2017-12-01T12:56:32.849Z,13.47
2017-12-01T12:59:01.239Z,17.90
2017-12-01T13:01:29.494Z,15.57
2017-12-01T13:03:58.033Z,13.70
2017-12-01T13:06:26.528Z,14.10
2017-12-01T13:08:55.092Z,18.23
2017-12-01T13:11:23.478Z,15.27
2017-12-01T13:13:51.838Z,12.93
2017-12-01T13:16:20.264Z,13.33
2017-12-01T13:18:48.987Z,12.93
2017-12-01T13:21:17.349Z,12.37
2017-12-01T13:23:45.709Z,13.30
2017-12-01T13:26:14.415Z,12.00
2017-12-01T13:28:43.320Z,8.20
2017-12-01T13:31:11.698Z,13.00
2017-12-01T13:33:40.373Z,11.80
2017-12-01T13:36:08.754Z,10.47
2017-12-01T13:38:37.445Z,9.87
2017-12-01T13:41:05.762Z,9.90
2017-12-01T13:43:34.084Z,11.77
2017-12-01T13:46:02.761Z,10.87
2017-12-01T13:48:31.082Z,7.80
2017-12-01T13:50:59.774Z,8.43
2017-12-01T13:53:28.573Z,7.60
2017-12-01T13:55:56.803Z,8.40
2017-12-01T13:58:25.569Z,27.50
2017-12-01T14:00:53.897Z,8.63
2017-12-01T14:03:27.243Z,11.00
2017-12-01T14:05:55.934Z,8.40
2017-12-01T14:08:24.614Z,7.47
2017-12-01T14:10:53.221Z,5.80
2017-12-01T14:13:24.886Z,8.70
2017-12-01T14:15:53.489Z,8.77
2017-12-01T14:18:22.094Z,9.10
2017-12-01T14:20:50.747Z,5.67
2017-12-01T14:23:22.969Z,6.60
2017-12-01T14:25:51.625Z,7.93
2017-12-01T14:28:20.240Z,6.57
2017-12-01T14:30:48.850Z,7.77
2017-12-01T14:33:17.506Z,7.67
2017-12-01T14:35:46.118Z,5.87
2017-12-01T14:38:14.733Z,7.53
2017-12-01T14:40:43.389Z,6.57
2017-12-01T14:43:11.986Z,6.60
2017-12-01T14:45:40.629Z,5.63
2017-12-01T14:48:09.254Z,6.63
2017-12-01T14:50:39.061Z,9.00
2017-12-01T14:53:07.666Z,5.97
2017-12-01T14:55:36.323Z,6.93
2017-12-01T14:58:04.942Z,8.53
2017-12-01T15:00:33.548Z,7.67
2017-12-01T15:03:02.194Z,6.10
2017-12-01T15:05:30.802Z,6.43
2017-12-01T15:07:59.463Z,10.10
2017-12-01T15:10:28.061Z,7.80
2017-12-01T15:12:56.737Z,14.40
2017-12-01T15:15:25.346Z,5.63
2017-12-01T15:17:53.955Z,7.30
2017-12-01T15:20:22.608Z,6.33
2017-12-01T15:22:51.205Z,9.83
2017-12-01T15:25:19.858Z,8.50
2017-12-01T15:27:48.485Z,6.50
2017-12-01T15:30:17.174Z,7.03
2017-12-01T15:32:45.696Z,8.17
2017-12-01T15:35:14.307Z,7.00
2017-12-01T15:37:42.954Z,6.43
2017-12-01T15:40:11.429Z,5.83
2017-12-01T15:42:40.030Z,8.20
2017-12-01T15:45:08.413Z,4.80
2017-12-01T15:47:36.938Z,7.73
2017-12-01T15:50:05.470Z,7.50
2017-12-01T15:52:33.955Z,5.97
2017-12-01T15:55:02.663Z,7.00
2017-12-01T15:57:31.129Z,5.37
2017-12-01T16:00:00.126Z,7.13
2017-12-01T16:02:28.634Z,8.00
2017-12-01T16:04:56.909Z,6.13
2017-12-01T16:07:25.273Z,13.40
2017-12-01T16:09:53.454Z,9.23
2017-12-01T16:12:21.677Z,10.30
2017-12-01T16:14:50.182Z,6.87
2017-12-01T16:17:18.592Z,6.10
2017-12-01T16:19:47.237Z,6.40
2017-12-01T16:22:15.626Z,7.40
2017-12-01T16:24:44.344Z,6.17
2017-12-01T16:27:12.993Z,5.57
2017-12-01T16:29:41.374Z,6.10
2017-12-01T16:32:10.011Z,5.23
2017-12-01T16:34:38.654Z,6.30
2017-12-01T16:37:07.046Z,9.90
2017-12-01T16:39:35.662Z,7.60
2017-12-01T16:42:04.304Z,6.13
2017-12-01T16:44:32.971Z,8.43
2017-12-01T16:47:01.877Z,13.83
2017-12-01T16:49:30.229Z,5.80
2017-12-01T16:51:58.550Z,6.43
2017-12-01T16:54:26.901Z,5.00
2017-12-01T16:56:55.222Z,5.37
2017-12-01T16:59:23.610Z,5.00
2017-12-01T17:01:52.270Z,4.47
2017-12-01T17:04:20.601Z,8.33
2017-12-01T17:06:48.980Z,4.57
2017-12-01T17:09:17.442Z,4.37
2017-12-01T17:11:45.866Z,5.93
2017-12-01T17:14:14.221Z,5.57
2017-12-01T17:16:42.597Z,4.60
2017-12-01T17:19:10.942Z,6.03
2017-12-01T17:21:39.390Z,4.17
2017-12-01T17:24:07.749Z,6.20
2017-12-01T17:26:36.569Z,12.27
2017-12-01T17:29:05.226Z,5.07
2017-12-01T17:31:33.617Z,6.43
2017-12-01T17:34:01.986Z,6.50
2017-12-01T17:36:30.630Z,5.97
2017-12-01T17:38:58.953Z,4.57
2017-12-01T17:41:27.363Z,10.50
2017-12-01T17:43:56.054Z,6.53
2017-12-01T17:46:24.738Z,5.50
2017-12-01T17:48:53.109Z,6.60
2017-12-01T17:51:21.758Z,6.10
2017-12-01T17:53:50.122Z,9.00
2017-12-01T17:56:18.454Z,10.53
2017-12-01T17:58:46.823Z,6.80
2017-12-01T18:01:15.157Z,6.30
2017-12-01T18:03:43.535Z,6.10
2017-12-01T18:06:12.465Z,7.73
2017-12-01T18:08:40.824Z,5.70
2017-12-01T18:11:09.146Z,4.53
2017-12-01T18:13:37.854Z,4.77
2017-12-01T18:16:06.278Z,5.50
2017-12-01T18:18:34.657Z,8.73
2017-12-01T18:21:03.314Z,5.30
2017-12-01T18:23:31.682Z,4.50
2017-12-01T18:26:00.329Z,5.07
2017-12-01T18:28:29.027Z,4.70
2017-12-01T18:30:57.350Z,16.07
2017-12-01T18:33:28.353Z,7.60
2017-12-01T18:35:56.746Z,12.40
2017-12-01T18:38:25.078Z,9.87
2017-12-01T18:40:53.449Z,9.37
2017-12-01T18:43:25.597Z,6.93
2017-12-01T18:45:54.281Z,6.67
2017-12-01T18:48:22.751Z,4.83
2017-12-01T18:50:51.407Z,5.03
2017-12-01T18:53:25.341Z,7.53
2017-12-01T18:55:53.778Z,4.30
2017-12-01T18:58:22.498Z,5.40
2017-12-01T19:00:50.890Z,4.20
2017-12-01T19:03:23.122Z,5.43
2017-12-01T19:05:51.547Z,4.77
2017-12-01T19:08:19.904Z,7.63
2017-12-01T19:10:48.589Z,10.33
2017-12-01T19:13:17.292Z,4.73
2017-12-01T19:15:45.662Z,6.00
2017-12-01T19:18:13.986Z,7.13
2017-12-01T19:20:42.202Z,9.40
2017-12-01T19:23:10.569Z,11.17
2017-12-01T19:25:39.075Z,7.77
2017-12-01T19:28:07.429Z,9.00
2017-12-01T19:30:35.616Z,10.23
2017-12-01T19:33:03.991Z,4.87
2017-12-01T19:35:32.316Z,4.47
2017-12-01T19:38:00.700Z,6.33
2017-12-01T19:40:29.017Z,9.63
2017-12-01T19:42:57.381Z,10.20
2017-12-01T19:45:25.742Z,6.03
2017-12-01T19:47:54.065Z,7.00
2017-12-01T19:50:22.755Z,6.23
2017-12-01T19:52:50.930Z,6.50
2017-12-01T19:55:19.293Z,9.77
2017-12-01T19:57:47.945Z,7.30
2017-12-01T20:00:16.378Z,6.17
2017-12-01T20:02:45.033Z,7.80
2017-12-01T20:05:13.694Z,8.73
2017-12-01T20:07:42.102Z,9.40
2017-12-01T20:10:10.434Z,6.97
2017-12-01T20:12:39.082Z,8.33
2017-12-01T20:15:07.458Z,8.13
2017-12-01T20:17:35.813Z,10.30
2017-12-01T20:20:04.239Z,10.40
2017-12-01T20:22:32.559Z,8.30
2017-12-01T20:25:00.889Z,6.90
2017-12-01T20:27:29.274Z,8.87
2017-12-01T20:29:57.910Z,7.10
2017-12-01T20:32:26.236Z,10.70
2017-12-01T20:34:54.658Z,10.00
2017-12-01T20:37:23.280Z,7.73
2017-12-01T20:39:51.606Z,10.40
2017-12-01T20:42:19.980Z,11.23
2017-12-01T20:44:48.666Z,7.67
2017-12-01T20:47:17.313Z,8.53
2017-12-01T20:49:46.343Z,8.83
2017-12-01T20:52:14.696Z,9.40
2017-12-01T20:54:43.478Z,7.57
2017-12-01T20:57:12.345Z,7.57
2017-12-01T20:59:40.701Z,8.73
2017-12-01T21:02:09.086Z,8.20
2017-12-01T21:04:37.738Z,6.97
2017-12-01T21:07:06.096Z,10.50
2017-12-01T21:09:34.713Z,15.50
2017-12-01T21:12:03.467Z,12.83
2017-12-01T21:14:32.121Z,9.87
2017-12-01T21:17:00.816Z,9.63
2017-12-01T21:19:29.145Z,11.07
2017-12-01T21:21:57.839Z,13.40
2017-12-01T21:24:26.544Z,10.37
2017-12-01T21:26:55.219Z,11.73
2017-12-01T21:29:23.565Z,14.97
2017-12-01T21:31:52.278Z,12.07
2017-12-01T21:34:20.628Z,10.70
2017-12-01T21:36:48.997Z,10.00
2017-12-01T21:39:17.327Z,9.40
2017-12-01T21:41:45.957Z,11.57
2017-12-01T21:44:14.634Z,13.33
2017-12-01T21:46:43.251Z,11.30
2017-12-01T21:49:11.913Z,12.73
2017-12-01T21:51:40.457Z,10.57
2017-12-01T21:54:09.092Z,14.90
2017-12-01T21:56:37.626Z,13.73
2017-12-01T21:59:06.275Z,12.60
2017-12-01T22:01:34.922Z,14.40
2017-12-01T22:04:03.537Z,12.17
2017-12-01T22:06:32.061Z,10.60
2017-12-01T22:09:00.727Z,10.97
2017-12-01T22:11:29.381Z,11.57
2017-12-01T22:13:57.914Z,12.77
2017-12-01T22:16:26.467Z,8.93
2017-12-01T22:18:54.946Z,12.00
2017-12-01T22:21:23.457Z,17.70
2017-12-01T22:23:51.950Z,10.10
2017-12-01T22:26:20.619Z,13.30
2017-12-01T22:28:49.090Z,12.90
2017-12-01T22:31:17.741Z,12.27
2017-12-01T22:33:46.387Z,12.27
2017-12-01T22:36:14.717Z,11.90
2017-12-01T22:38:43.420Z,12.47
2017-12-01T22:41:12.050Z,10.93
2017-12-01T22:43:40.729Z,13.57
2017-12-01T22:46:09.393Z,12.63
2017-12-01T22:48:38.033Z,11.03
2017-12-01T22:51:06.681Z,17.57
2017-12-01T22:53:35.333Z,14.63
2017-12-01T22:56:04.002Z,17.90
2017-12-01T22:58:32.635Z,12.47
2017-12-01T23:01:01.270Z,13.97
2017-12-01T23:03:29.666Z,16.60
2017-12-01T23:05:58.003Z,13.17
2017-12-01T23:08:26.699Z,14.07
2017-12-01T23:10:55.393Z,11.80
2017-12-01T23:13:24.811Z,13.73
2017-12-01T23:15:53.758Z,13.03
2017-12-01T23:18:22.390Z,14.20
2017-12-01T23:20:51.070Z,16.93
2017-12-01T23:23:19.763Z,12.33
2017-12-01T23:25:48.426Z,14.77
2017-12-01T23:28:17.042Z,15.13
2017-12-01T23:30:45.671Z,12.53
2017-12-01T23:33:14.322Z,12.00
2017-12-01T23:35:42.950Z,17.00
2017-12-01T23:38:11.628Z,15.73
2017-12-01T23:40:40.275Z,15.50
2017-12-01T23:43:08.886Z,16.03
2017-12-01T23:45:37.578Z,14.47
2017-12-01T23:48:06.396Z,12.63
2017-12-01T23:50:35.030Z,13.87
2017-12-01T23:53:03.703Z,13.80
2017-12-01T23:55:32.046Z,15.30
2017-12-01T23:58:00.790Z,16.00
